sensor_id;sensor_type;location;lat;lon;timestamp;P1;durP1;ratioP1;P2;durP2;ratioP2
62724;SDS011;49026;52.600;4.694;2022-10-23T00:00:35;30.27;;;10.07;;
62724;SDS011;49026;52.600;4.694;2022-10-23T00:03:03;32.10;;;10.70;;
62724;SDS011;49026;52.600;4.694;2022-10-23T00:05:29;37.05;;;10.85;;
62724;SDS011;49026;52.600;4.694;2022-10-23T00:07:56;29.00;;;10.25;;
62724;SDS011;49026;52.600;4.694;2022-10-23T00:10:26;32.60;;;10.75;;
62724;SDS011;49026;52.600;4.694;2022-10-23T00:12:52;28.08;;;10.20;;
62724;SDS011;49026;52.600;4.694;2022-10-23T00:15:19;28.30;;;10.07;;
62724;SDS011;49026;52.600;4.694;2022-10-23T00:17:46;33.53;;;10.50;;
62724;SDS011;49026;52.600;4.694;2022-10-23T00:20:12;23.58;;;10.57;;
62724;SDS011;49026;52.600;4.694;2022-10-23T00:22:39;29.20;;;11.10;;
62724;SDS011;49026;52.600;4.694;2022-10-23T00:25:05;32.15;;;10.73;;
62724;SDS011;49026;52.600;4.694;2022-10-23T00:27:32;28.38;;;10.60;;
62724;SDS011;49026;52.600;4.694;2022-10-23T00:30:00;28.13;;;10.48;;
62724;SDS011;49026;52.600;4.694;2022-10-23T00:32:27;33.85;;;10.43;;
62724;SDS011;49026;52.600;4.694;2022-10-23T00:34:53;27.88;;;9.77;;
62724;SDS011;49026;52.600;4.694;2022-10-23T00:37:18;35.92;;;11.73;;
62724;SDS011;49026;52.600;4.694;2022-10-23T00:39:44;38.78;;;12.15;;
62724;SDS011;49026;52.600;4.694;2022-10-23T00:42:10;23.73;;;11.52;;
62724;SDS011;49026;52.600;4.694;2022-10-23T00:47:07;28.30;;;10.67;;
62724;SDS011;49026;52.600;4.694;2022-10-23T00:49:34;28.52;;;10.75;;
62724;SDS011;49026;52.600;4.694;2022-10-23T00:52:01;23.40;;;9.50;;
62724;SDS011;49026;52.600;4.694;2022-10-23T00:54:32;34.30;;;11.82;;
62724;SDS011;49026;52.600;4.694;2022-10-23T00:57:02;23.47;;;10.57;;
62724;SDS011;49026;52.600;4.694;2022-10-23T00:59:29;25.95;;;11.27;;
62724;SDS011;49026;52.600;4.694;2022-10-23T01:01:58;24.83;;;10.33;;
62724;SDS011;49026;52.600;4.694;2022-10-23T01:04:24;26.30;;;10.60;;
62724;SDS011;49026;52.600;4.694;2022-10-23T01:06:58;38.45;;;12.70;;
62724;SDS011;49026;52.600;4.694;2022-10-23T01:09:35;36.28;;;12.60;;
62724;SDS011;49026;52.600;4.694;2022-10-23T01:20:10;43.47;;;11.00;;
62724;SDS011;49026;52.600;4.694;2022-10-23T01:28:24;19.40;;;10.40;;
62724;SDS011;49026;52.600;4.694;2022-10-23T01:30:54;22.80;;;10.95;;
62724;SDS011;49026;52.600;4.694;2022-10-23T01:33:27;21.95;;;9.88;;
62724;SDS011;49026;52.600;4.694;2022-10-23T01:36:01;21.52;;;10.07;;
62724;SDS011;49026;52.600;4.694;2022-10-23T01:38:33;30.73;;;11.85;;
62724;SDS011;49026;52.600;4.694;2022-10-23T01:41:16;19.85;;;9.23;;
62724;SDS011;49026;52.600;4.694;2022-10-23T01:46:19;30.55;;;10.93;;
62724;SDS011;49026;52.600;4.694;2022-10-23T01:48:50;18.27;;;9.43;;
62724;SDS011;49026;52.600;4.694;2022-10-23T01:51:18;23.55;;;10.23;;
62724;SDS011;49026;52.600;4.694;2022-10-23T01:53:46;23.60;;;10.20;;
62724;SDS011;49026;52.600;4.694;2022-10-23T01:56:17;19.05;;;8.50;;
62724;SDS011;49026;52.600;4.694;2022-10-23T01:58:45;28.35;;;10.55;;
62724;SDS011;49026;52.600;4.694;2022-10-23T02:01:14;27.53;;;10.63;;
62724;SDS011;49026;52.600;4.694;2022-10-23T02:03:45;25.55;;;11.25;;
62724;SDS011;49026;52.600;4.694;2022-10-23T02:06:17;22.23;;;10.02;;
62724;SDS011;49026;52.600;4.694;2022-10-23T02:08:43;26.45;;;9.80;;
62724;SDS011;49026;52.600;4.694;2022-10-23T02:11:17;29.17;;;11.00;;
62724;SDS011;49026;52.600;4.694;2022-10-23T02:24:22;35.90;;;11.93;;
62724;SDS011;49026;52.600;4.694;2022-10-23T02:26:54;28.08;;;10.95;;
62724;SDS011;49026;52.600;4.694;2022-10-23T02:31:52;10.88;;;5.82;;
62724;SDS011;49026;52.600;4.694;2022-10-23T02:34:17;23.17;;;10.77;;
62724;SDS011;49026;52.600;4.694;2022-10-23T02:36:43;17.20;;;9.45;;
62724;SDS011;49026;52.600;4.694;2022-10-23T02:39:08;20.38;;;9.82;;
62724;SDS011;49026;52.600;4.694;2022-10-23T02:47:09;21.20;;;11.15;;
62724;SDS011;49026;52.600;4.694;2022-10-23T02:57:52;27.65;;;11.13;;
62724;SDS011;49026;52.600;4.694;2022-10-23T03:00:23;20.00;;;9.95;;
62724;SDS011;49026;52.600;4.694;2022-10-23T03:02:52;30.00;;;9.10;;
62724;SDS011;49026;52.600;4.694;2022-10-23T03:05:28;19.67;;;10.32;;
62724;SDS011;49026;52.600;4.694;2022-10-23T03:07:56;15.05;;;8.40;;
62724;SDS011;49026;52.600;4.694;2022-10-23T03:10:22;21.27;;;9.40;;
62724;SDS011;49026;52.600;4.694;2022-10-23T03:12:49;14.80;;;9.05;;
62724;SDS011;49026;52.600;4.694;2022-10-23T03:15:15;13.38;;;7.45;;
62724;SDS011;49026;52.600;4.694;2022-10-23T03:17:41;29.10;;;9.02;;
62724;SDS011;49026;52.600;4.694;2022-10-23T03:20:07;15.55;;;7.88;;
62724;SDS011;49026;52.600;4.694;2022-10-23T03:22:33;16.38;;;7.57;;
62724;SDS011;49026;52.600;4.694;2022-10-23T03:24:58;13.90;;;9.07;;
62724;SDS011;49026;52.600;4.694;2022-10-23T03:27:24;22.83;;;9.15;;
62724;SDS011;49026;52.600;4.694;2022-10-23T03:29:49;16.67;;;8.60;;
62724;SDS011;49026;52.600;4.694;2022-10-23T03:32:14;17.92;;;8.27;;
62724;SDS011;49026;52.600;4.694;2022-10-23T03:34:40;15.38;;;8.88;;
62724;SDS011;49026;52.600;4.694;2022-10-23T03:37:08;20.25;;;8.65;;
62724;SDS011;49026;52.600;4.694;2022-10-23T03:39:33;18.20;;;8.98;;
62724;SDS011;49026;52.600;4.694;2022-10-23T03:41:58;25.15;;;9.27;;
62724;SDS011;49026;52.600;4.694;2022-10-23T03:44:24;15.15;;;7.97;;
62724;SDS011;49026;52.600;4.694;2022-10-23T03:46:49;11.90;;;5.15;;
62724;SDS011;49026;52.600;4.694;2022-10-23T03:49:14;17.67;;;8.48;;
62724;SDS011;49026;52.600;4.694;2022-10-23T03:51:42;14.40;;;6.85;;
62724;SDS011;49026;52.600;4.694;2022-10-23T03:54:11;17.63;;;8.50;;
62724;SDS011;49026;52.600;4.694;2022-10-23T03:56:36;16.70;;;8.48;;
62724;SDS011;49026;52.600;4.694;2022-10-23T03:59:04;13.15;;;7.78;;
62724;SDS011;49026;52.600;4.694;2022-10-23T04:01:29;18.90;;;9.55;;
62724;SDS011;49026;52.600;4.694;2022-10-23T04:03:54;13.68;;;7.93;;
62724;SDS011;49026;52.600;4.694;2022-10-23T04:06:20;15.93;;;6.85;;
62724;SDS011;49026;52.600;4.694;2022-10-23T04:08:46;13.50;;;6.72;;
62724;SDS011;49026;52.600;4.694;2022-10-23T04:11:11;15.25;;;9.43;;
62724;SDS011;49026;52.600;4.694;2022-10-23T04:13:36;20.35;;;8.88;;
62724;SDS011;49026;52.600;4.694;2022-10-23T04:16:04;22.73;;;9.23;;
62724;SDS011;49026;52.600;4.694;2022-10-23T04:18:29;16.02;;;7.30;;
62724;SDS011;49026;52.600;4.694;2022-10-23T04:20:54;12.73;;;8.55;;
62724;SDS011;49026;52.600;4.694;2022-10-23T04:23:22;14.25;;;8.85;;
62724;SDS011;49026;52.600;4.694;2022-10-23T04:25:48;13.65;;;8.55;;
62724;SDS011;49026;52.600;4.694;2022-10-23T04:28:15;21.92;;;9.80;;
62724;SDS011;49026;52.600;4.694;2022-10-23T04:30:41;17.13;;;9.23;;
62724;SDS011;49026;52.600;4.694;2022-10-23T04:33:06;14.35;;;9.40;;
62724;SDS011;49026;52.600;4.694;2022-10-23T04:35:34;9.45;;;5.53;;
62724;SDS011;49026;52.600;4.694;2022-10-23T04:37:59;14.48;;;9.40;;
62724;SDS011;49026;52.600;4.694;2022-10-23T04:40:26;10.52;;;5.78;;
62724;SDS011;49026;52.600;4.694;2022-10-23T04:42:52;13.07;;;8.30;;
62724;SDS011;49026;52.600;4.694;2022-10-23T04:45:17;10.60;;;4.38;;
62724;SDS011;49026;52.600;4.694;2022-10-23T04:47:42;15.52;;;8.60;;
62724;SDS011;49026;52.600;4.694;2022-10-23T04:50:08;18.67;;;9.55;;
62724;SDS011;49026;52.600;4.694;2022-10-23T04:52:33;18.52;;;7.70;;
62724;SDS011;49026;52.600;4.694;2022-10-23T04:54:58;16.25;;;9.60;;
62724;SDS011;49026;52.600;4.694;2022-10-23T04:57:24;15.57;;;6.13;;
62724;SDS011;49026;52.600;4.694;2022-10-23T04:59:49;7.93;;;4.68;;
62724;SDS011;49026;52.600;4.694;2022-10-23T05:02:14;12.98;;;7.05;;
62724;SDS011;49026;52.600;4.694;2022-10-23T05:04:39;17.48;;;9.25;;
62724;SDS011;49026;52.600;4.694;2022-10-23T05:07:07;21.05;;;9.07;;
62724;SDS011;49026;52.600;4.694;2022-10-23T05:09:33;6.50;;;3.58;;
62724;SDS011;49026;52.600;4.694;2022-10-23T05:12:01;17.17;;;9.35;;
62724;SDS011;49026;52.600;4.694;2022-10-23T05:14:26;11.18;;;5.78;;
62724;SDS011;49026;52.600;4.694;2022-10-23T05:16:54;15.88;;;7.88;;
62724;SDS011;49026;52.600;4.694;2022-10-23T05:19:26;17.73;;;10.07;;
62724;SDS011;49026;52.600;4.694;2022-10-23T05:21:58;17.95;;;9.38;;
62724;SDS011;49026;52.600;4.694;2022-10-23T05:24:25;8.32;;;5.80;;
62724;SDS011;49026;52.600;4.694;2022-10-23T05:26:51;21.25;;;10.18;;
62724;SDS011;49026;52.600;4.694;2022-10-23T05:29:17;18.83;;;8.57;;
62724;SDS011;49026;52.600;4.694;2022-10-23T05:31:47;13.73;;;8.25;;
62724;SDS011;49026;52.600;4.694;2022-10-23T05:34:14;15.25;;;9.10;;
62724;SDS011;49026;52.600;4.694;2022-10-23T05:36:43;14.05;;;8.63;;
62724;SDS011;49026;52.600;4.694;2022-10-23T05:39:09;25.23;;;10.65;;
62724;SDS011;49026;52.600;4.694;2022-10-23T05:41:34;18.83;;;9.73;;
62724;SDS011;49026;52.600;4.694;2022-10-23T05:44:00;16.67;;;9.32;;
62724;SDS011;49026;52.600;4.694;2022-10-23T05:46:25;16.75;;;9.18;;
62724;SDS011;49026;52.600;4.694;2022-10-23T05:48:53;17.67;;;8.57;;
62724;SDS011;49026;52.600;4.694;2022-10-23T05:51:19;16.48;;;9.63;;
62724;SDS011;49026;52.600;4.694;2022-10-23T05:53:47;20.98;;;8.98;;
62724;SDS011;49026;52.600;4.694;2022-10-23T05:56:13;21.17;;;9.23;;
62724;SDS011;49026;52.600;4.694;2022-10-23T05:58:38;17.48;;;8.88;;
62724;SDS011;49026;52.600;4.694;2022-10-23T06:01:07;15.65;;;8.95;;
62724;SDS011;49026;52.600;4.694;2022-10-23T06:03:35;20.13;;;10.07;;
62724;SDS011;49026;52.600;4.694;2022-10-23T06:06:03;19.42;;;9.07;;
62724;SDS011;49026;52.600;4.694;2022-10-23T06:08:29;14.35;;;7.43;;
62724;SDS011;49026;52.600;4.694;2022-10-23T06:10:55;13.60;;;7.15;;
62724;SDS011;49026;52.600;4.694;2022-10-23T06:13:20;15.65;;;8.73;;
62724;SDS011;49026;52.600;4.694;2022-10-23T06:15:46;14.00;;;8.23;;
62724;SDS011;49026;52.600;4.694;2022-10-23T06:18:16;23.08;;;9.75;;
62724;SDS011;49026;52.600;4.694;2022-10-23T06:20:41;14.77;;;8.18;;
62724;SDS011;49026;52.600;4.694;2022-10-23T06:23:09;12.88;;;7.50;;
62724;SDS011;49026;52.600;4.694;2022-10-23T06:25:34;15.52;;;8.93;;
62724;SDS011;49026;52.600;4.694;2022-10-23T06:27:59;16.05;;;7.03;;
62724;SDS011;49026;52.600;4.694;2022-10-23T06:30:25;15.82;;;8.50;;
62724;SDS011;49026;52.600;4.694;2022-10-23T06:32:50;13.85;;;8.27;;
62724;SDS011;49026;52.600;4.694;2022-10-23T06:35:15;12.45;;;7.93;;
62724;SDS011;49026;52.600;4.694;2022-10-23T06:37:41;8.35;;;5.47;;
62724;SDS011;49026;52.600;4.694;2022-10-23T06:40:06;12.98;;;7.25;;
62724;SDS011;49026;52.600;4.694;2022-10-23T06:42:35;16.15;;;7.15;;
62724;SDS011;49026;52.600;4.694;2022-10-23T06:45:04;10.48;;;5.38;;
62724;SDS011;49026;52.600;4.694;2022-10-23T06:47:29;17.42;;;8.63;;
62724;SDS011;49026;52.600;4.694;2022-10-23T06:49:55;13.27;;;8.45;;
62724;SDS011;49026;52.600;4.694;2022-10-23T06:52:20;14.75;;;7.70;;
62724;SDS011;49026;52.600;4.694;2022-10-23T06:54:45;16.05;;;7.82;;
62724;SDS011;49026;52.600;4.694;2022-10-23T06:57:10;16.92;;;8.27;;
62724;SDS011;49026;52.600;4.694;2022-10-23T06:59:36;14.63;;;6.93;;
62724;SDS011;49026;52.600;4.694;2022-10-23T07:02:01;12.70;;;6.28;;
62724;SDS011;49026;52.600;4.694;2022-10-23T07:04:30;16.80;;;7.43;;
62724;SDS011;49026;52.600;4.694;2022-10-23T07:06:55;12.10;;;6.30;;
62724;SDS011;49026;52.600;4.694;2022-10-23T07:09:21;8.20;;;3.45;;
62724;SDS011;49026;52.600;4.694;2022-10-23T07:11:47;16.05;;;7.65;;
62724;SDS011;49026;52.600;4.694;2022-10-23T07:14:12;16.73;;;6.88;;
62724;SDS011;49026;52.600;4.694;2022-10-23T07:16:38;16.58;;;7.05;;
62724;SDS011;49026;52.600;4.694;2022-10-23T07:19:03;12.63;;;5.57;;
62724;SDS011;49026;52.600;4.694;2022-10-23T07:21:31;15.75;;;7.38;;
62724;SDS011;49026;52.600;4.694;2022-10-23T07:24:01;11.05;;;5.75;;
62724;SDS011;49026;52.600;4.694;2022-10-23T07:26:30;12.23;;;6.22;;
62724;SDS011;49026;52.600;4.694;2022-10-23T07:28:56;15.05;;;6.53;;
62724;SDS011;49026;52.600;4.694;2022-10-23T07:31:25;10.07;;;4.05;;
62724;SDS011;49026;52.600;4.694;2022-10-23T07:33:50;15.70;;;7.10;;
62724;SDS011;49026;52.600;4.694;2022-10-23T07:36:18;9.05;;;4.20;;
62724;SDS011;49026;52.600;4.694;2022-10-23T07:38:44;17.35;;;7.28;;
62724;SDS011;49026;52.600;4.694;2022-10-23T07:41:11;10.55;;;6.43;;
62724;SDS011;49026;52.600;4.694;2022-10-23T07:43:37;10.05;;;5.28;;
62724;SDS011;49026;52.600;4.694;2022-10-23T07:46:03;16.83;;;6.97;;
62724;SDS011;49026;52.600;4.694;2022-10-23T07:48:35;5.70;;;3.38;;
62724;SDS011;49026;52.600;4.694;2022-10-23T07:51:04;6.88;;;3.78;;
62724;SDS011;49026;52.600;4.694;2022-10-23T07:53:35;8.13;;;3.67;;
62724;SDS011;49026;52.600;4.694;2022-10-23T07:56:02;10.98;;;5.03;;
62724;SDS011;49026;52.600;4.694;2022-10-23T07:58:34;16.30;;;5.07;;
62724;SDS011;49026;52.600;4.694;2022-10-23T08:01:02;8.43;;;4.80;;
62724;SDS011;49026;52.600;4.694;2022-10-23T08:03:29;7.35;;;4.47;;
62724;SDS011;49026;52.600;4.694;2022-10-23T08:05:56;13.38;;;5.57;;
62724;SDS011;49026;52.600;4.694;2022-10-23T08:08:22;15.23;;;6.05;;
62724;SDS011;49026;52.600;4.694;2022-10-23T08:10:49;9.60;;;4.78;;
62724;SDS011;49026;52.600;4.694;2022-10-23T08:13:15;7.53;;;4.97;;
62724;SDS011;49026;52.600;4.694;2022-10-23T08:15:46;7.53;;;4.45;;
62724;SDS011;49026;52.600;4.694;2022-10-23T08:18:14;10.35;;;5.03;;
62724;SDS011;49026;52.600;4.694;2022-10-23T08:20:42;11.73;;;5.20;;
62724;SDS011;49026;52.600;4.694;2022-10-23T08:23:08;9.27;;;4.73;;
62724;SDS011;49026;52.600;4.694;2022-10-23T08:25:36;6.90;;;4.05;;
62724;SDS011;49026;52.600;4.694;2022-10-23T08:28:01;10.13;;;4.18;;
62724;SDS011;49026;52.600;4.694;2022-10-23T08:30:29;6.25;;;3.00;;
62724;SDS011;49026;52.600;4.694;2022-10-23T08:32:56;7.85;;;4.40;;
62724;SDS011;49026;52.600;4.694;2022-10-23T08:35:24;8.45;;;4.30;;
62724;SDS011;49026;52.600;4.694;2022-10-23T08:37:50;7.18;;;4.07;;
62724;SDS011;49026;52.600;4.694;2022-10-23T08:40:16;11.25;;;4.30;;
62724;SDS011;49026;52.600;4.694;2022-10-23T08:42:45;9.30;;;3.30;;
62724;SDS011;49026;52.600;4.694;2022-10-23T08:47:45;7.65;;;4.32;;
62724;SDS011;49026;52.600;4.694;2022-10-23T08:53:04;9.43;;;4.10;;
62724;SDS011;49026;52.600;4.694;2022-10-23T08:55:30;12.05;;;5.20;;
62724;SDS011;49026;52.600;4.694;2022-10-23T08:58:03;11.48;;;5.93;;
62724;SDS011;49026;52.600;4.694;2022-10-23T09:00:43;8.18;;;3.88;;
62724;SDS011;49026;52.600;4.694;2022-10-23T09:03:11;8.48;;;3.72;;
62724;SDS011;49026;52.600;4.694;2022-10-23T09:08:43;8.98;;;3.97;;
62724;SDS011;49026;52.600;4.694;2022-10-23T09:16:44;12.13;;;5.85;;
62724;SDS011;49026;52.600;4.694;2022-10-23T09:19:22;14.50;;;5.65;;
62724;SDS011;49026;52.600;4.694;2022-10-23T09:21:51;16.20;;;5.65;;
62724;SDS011;49026;52.600;4.694;2022-10-23T09:24:21;12.43;;;5.57;;
62724;SDS011;49026;52.600;4.694;2022-10-23T09:26:48;11.90;;;4.75;;
62724;SDS011;49026;52.600;4.694;2022-10-23T09:29:23;6.07;;;4.20;;
62724;SDS011;49026;52.600;4.694;2022-10-23T09:31:57;10.57;;;4.78;;
62724;SDS011;49026;52.600;4.694;2022-10-23T09:34:25;8.55;;;4.70;;
62724;SDS011;49026;52.600;4.694;2022-10-23T09:36:54;8.30;;;4.78;;
62724;SDS011;49026;52.600;4.694;2022-10-23T09:41:57;9.75;;;4.40;;
62724;SDS011;49026;52.600;4.694;2022-10-23T09:44:27;6.57;;;4.03;;
62724;SDS011;49026;52.600;4.694;2022-10-23T09:49:30;9.13;;;4.57;;
62724;SDS011;49026;52.600;4.694;2022-10-23T09:54:35;4.82;;;3.00;;
62724;SDS011;49026;52.600;4.694;2022-10-23T09:57:05;8.63;;;5.10;;
62724;SDS011;49026;52.600;4.694;2022-10-23T09:59:51;10.52;;;5.28;;
62724;SDS011;49026;52.600;4.694;2022-10-23T10:02:26;8.63;;;5.20;;
62724;SDS011;49026;52.600;4.694;2022-10-23T10:04:54;13.85;;;4.43;;
62724;SDS011;49026;52.600;4.694;2022-10-23T10:07:21;13.30;;;4.78;;
62724;SDS011;49026;52.600;4.694;2022-10-23T10:09:52;7.70;;;3.72;;
62724;SDS011;49026;52.600;4.694;2022-10-23T10:28:29;7.00;;;3.33;;
62724;SDS011;49026;52.600;4.694;2022-10-23T10:31:10;12.40;;;3.97;;
62724;SDS011;49026;52.600;4.694;2022-10-23T10:36:32;12.37;;;3.60;;
62724;SDS011;49026;52.600;4.694;2022-10-23T10:39:08;7.38;;;4.10;;
62724;SDS011;49026;52.600;4.694;2022-10-23T10:44:57;11.80;;;4.30;;
62724;SDS011;49026;52.600;4.694;2022-10-23T10:47:39;6.50;;;3.40;;
62724;SDS011;49026;52.600;4.694;2022-10-23T10:55:40;9.05;;;4.50;;
62724;SDS011;49026;52.600;4.694;2022-10-23T11:01:32;12.45;;;4.68;;
62724;SDS011;49026;52.600;4.694;2022-10-23T11:04:04;11.43;;;4.72;;
62724;SDS011;49026;52.600;4.694;2022-10-23T11:06:38;5.93;;;4.18;;
62724;SDS011;49026;52.600;4.694;2022-10-23T11:09:21;10.18;;;5.95;;
62724;SDS011;49026;52.600;4.694;2022-10-23T11:11:50;9.85;;;3.58;;
62724;SDS011;49026;52.600;4.694;2022-10-23T11:14:23;7.57;;;4.10;;
62724;SDS011;49026;52.600;4.694;2022-10-23T11:16:51;8.52;;;4.32;;
62724;SDS011;49026;52.600;4.694;2022-10-23T11:19:28;10.40;;;4.45;;
62724;SDS011;49026;52.600;4.694;2022-10-23T11:22:03;18.77;;;6.75;;
62724;SDS011;49026;52.600;4.694;2022-10-23T11:24:43;13.35;;;4.60;;
62724;SDS011;49026;52.600;4.694;2022-10-23T11:27:40;10.75;;;4.38;;
62724;SDS011;49026;52.600;4.694;2022-10-23T11:35:47;8.77;;;3.78;;
62724;SDS011;49026;52.600;4.694;2022-10-23T11:38:29;10.25;;;4.07;;
62724;SDS011;49026;52.600;4.694;2022-10-23T11:40:59;6.85;;;3.90;;
62724;SDS011;49026;52.600;4.694;2022-10-23T11:43:29;10.63;;;5.05;;
62724;SDS011;49026;52.600;4.694;2022-10-23T11:46:11;6.35;;;3.17;;
62724;SDS011;49026;52.600;4.694;2022-10-23T11:48:39;10.82;;;3.38;;
62724;SDS011;49026;52.600;4.694;2022-10-23T11:51:23;16.55;;;4.65;;
62724;SDS011;49026;52.600;4.694;2022-10-23T11:53:50;5.72;;;2.70;;
62724;SDS011;49026;52.600;4.694;2022-10-23T12:01:16;7.27;;;3.27;;
62724;SDS011;49026;52.600;4.694;2022-10-23T12:03:59;6.93;;;2.88;;
62724;SDS011;49026;52.600;4.694;2022-10-23T12:06:31;8.55;;;3.75;;
62724;SDS011;49026;52.600;4.694;2022-10-23T12:09:07;10.57;;;3.35;;
62724;SDS011;49026;52.600;4.694;2022-10-23T12:11:47;7.40;;;3.35;;
62724;SDS011;49026;52.600;4.694;2022-10-23T12:20:00;7.15;;;3.40;;
62724;SDS011;49026;52.600;4.694;2022-10-23T12:22:41;5.93;;;2.88;;
62724;SDS011;49026;52.600;4.694;2022-10-23T12:25:42;9.02;;;3.28;;
62724;SDS011;49026;52.600;4.694;2022-10-23T12:39:51;10.35;;;2.92;;
62724;SDS011;49026;52.600;4.694;2022-10-23T12:42:22;3.83;;;1.88;;
62724;SDS011;49026;52.600;4.694;2022-10-23T12:44:59;5.80;;;2.20;;
62724;SDS011;49026;52.600;4.694;2022-10-23T12:47:29;8.60;;;2.72;;
62724;SDS011;49026;52.600;4.694;2022-10-23T12:49:57;7.80;;;2.83;;
62724;SDS011;49026;52.600;4.694;2022-10-23T12:52:23;9.93;;;2.80;;
62724;SDS011;49026;52.600;4.694;2022-10-23T12:54:50;6.32;;;2.63;;
62724;SDS011;49026;52.600;4.694;2022-10-23T12:57:18;5.68;;;3.00;;
62724;SDS011;49026;52.600;4.694;2022-10-23T13:02:24;4.93;;;2.33;;
62724;SDS011;49026;52.600;4.694;2022-10-23T13:04:52;3.55;;;1.80;;
62724;SDS011;49026;52.600;4.694;2022-10-23T13:07:25;8.48;;;2.53;;
62724;SDS011;49026;52.600;4.694;2022-10-23T13:09:57;5.07;;;2.22;;
62724;SDS011;49026;52.600;4.694;2022-10-23T13:12:27;6.65;;;3.13;;
62724;SDS011;49026;52.600;4.694;2022-10-23T13:17:31;9.18;;;2.13;;
62724;SDS011;49026;52.600;4.694;2022-10-23T13:25:26;7.45;;;3.22;;
62724;SDS011;49026;52.600;4.694;2022-10-23T13:28:14;10.18;;;3.65;;
62724;SDS011;49026;52.600;4.694;2022-10-23T13:30:43;10.48;;;2.80;;
62724;SDS011;49026;52.600;4.694;2022-10-23T13:33:13;10.57;;;3.95;;
62724;SDS011;49026;52.600;4.694;2022-10-23T13:35:39;6.68;;;3.58;;
62724;SDS011;49026;52.600;4.694;2022-10-23T13:38:08;8.57;;;4.28;;
62724;SDS011;49026;52.600;4.694;2022-10-23T13:40:33;5.57;;;2.97;;
62724;SDS011;49026;52.600;4.694;2022-10-23T13:42:59;6.43;;;2.70;;
62724;SDS011;49026;52.600;4.694;2022-10-23T13:45:25;7.63;;;3.28;;
62724;SDS011;49026;52.600;4.694;2022-10-23T13:47:52;12.25;;;3.85;;
62724;SDS011;49026;52.600;4.694;2022-10-23T13:50:18;8.18;;;3.78;;
62724;SDS011;49026;52.600;4.694;2022-10-23T13:52:43;6.75;;;2.67;;
62724;SDS011;49026;52.600;4.694;2022-10-23T13:55:13;5.82;;;2.33;;
62724;SDS011;49026;52.600;4.694;2022-10-23T13:57:44;14.27;;;3.00;;
62724;SDS011;49026;52.600;4.694;2022-10-23T14:00:09;12.00;;;3.30;;
62724;SDS011;49026;52.600;4.694;2022-10-23T14:02:39;8.57;;;3.33;;
62724;SDS011;49026;52.600;4.694;2022-10-23T14:05:07;10.85;;;3.83;;
62724;SDS011;49026;52.600;4.694;2022-10-23T14:07:32;12.38;;;4.20;;
62724;SDS011;49026;52.600;4.694;2022-10-23T14:09:57;9.35;;;3.00;;
62724;SDS011;49026;52.600;4.694;2022-10-23T14:12:25;9.85;;;3.70;;
62724;SDS011;49026;52.600;4.694;2022-10-23T14:14:51;8.32;;;3.47;;
62724;SDS011;49026;52.600;4.694;2022-10-23T14:17:19;6.93;;;2.92;;
62724;SDS011;49026;52.600;4.694;2022-10-23T14:19:45;5.43;;;2.28;;
62724;SDS011;49026;52.600;4.694;2022-10-23T14:22:12;10.80;;;3.92;;
62724;SDS011;49026;52.600;4.694;2022-10-23T14:24:38;8.07;;;2.80;;
62724;SDS011;49026;52.600;4.694;2022-10-23T14:27:03;6.68;;;2.90;;
62724;SDS011;49026;52.600;4.694;2022-10-23T14:29:28;6.60;;;2.40;;
62724;SDS011;49026;52.600;4.694;2022-10-23T14:31:57;5.60;;;2.33;;
62724;SDS011;49026;52.600;4.694;2022-10-23T14:34:22;8.95;;;3.00;;
62724;SDS011;49026;52.600;4.694;2022-10-23T14:36:47;7.72;;;2.60;;
62724;SDS011;49026;52.600;4.694;2022-10-23T14:39:17;10.98;;;2.40;;
62724;SDS011;49026;52.600;4.694;2022-10-23T14:41:43;4.70;;;1.90;;
62724;SDS011;49026;52.600;4.694;2022-10-23T14:44:10;6.53;;;2.70;;
62724;SDS011;49026;52.600;4.694;2022-10-23T14:46:36;11.75;;;3.72;;
62724;SDS011;49026;52.600;4.694;2022-10-23T14:49:02;4.28;;;2.50;;
62724;SDS011;49026;52.600;4.694;2022-10-23T14:51:28;8.75;;;2.85;;
62724;SDS011;49026;52.600;4.694;2022-10-23T14:53:55;7.55;;;3.10;;
62724;SDS011;49026;52.600;4.694;2022-10-23T14:56:23;6.45;;;2.67;;
62724;SDS011;49026;52.600;4.694;2022-10-23T14:58:48;5.57;;;2.45;;
62724;SDS011;49026;52.600;4.694;2022-10-23T15:01:14;10.18;;;3.10;;
62724;SDS011;49026;52.600;4.694;2022-10-23T15:03:39;6.72;;;2.80;;
62724;SDS011;49026;52.600;4.694;2022-10-23T15:06:04;7.28;;;3.50;;
62724;SDS011;49026;52.600;4.694;2022-10-23T15:08:30;9.75;;;3.10;;
62724;SDS011;49026;52.600;4.694;2022-10-23T15:10:59;8.02;;;2.83;;
62724;SDS011;49026;52.600;4.694;2022-10-23T15:13:28;7.53;;;2.95;;
62724;SDS011;49026;52.600;4.694;2022-10-23T15:16:05;6.90;;;2.53;;
62724;SDS011;49026;52.600;4.694;2022-10-23T15:18:32;9.93;;;3.03;;
62724;SDS011;49026;52.600;4.694;2022-10-23T15:21:00;6.85;;;3.33;;
62724;SDS011;49026;52.600;4.694;2022-10-23T15:23:28;11.40;;;3.60;;
62724;SDS011;49026;52.600;4.694;2022-10-23T15:25:55;5.40;;;2.78;;
62724;SDS011;49026;52.600;4.694;2022-10-23T15:28:25;6.57;;;3.03;;
62724;SDS011;49026;52.600;4.694;2022-10-23T15:30:53;6.15;;;2.75;;
62724;SDS011;49026;52.600;4.694;2022-10-23T15:33:19;9.48;;;3.72;;
62724;SDS011;49026;52.600;4.694;2022-10-23T15:35:52;7.78;;;3.40;;
62724;SDS011;49026;52.600;4.694;2022-10-23T15:38:18;11.77;;;4.05;;
62724;SDS011;49026;52.600;4.694;2022-10-23T15:40:44;9.73;;;3.92;;
62724;SDS011;49026;52.600;4.694;2022-10-23T15:43:10;13.57;;;3.90;;
62724;SDS011;49026;52.600;4.694;2022-10-23T15:45:36;9.65;;;4.57;;
62724;SDS011;49026;52.600;4.694;2022-10-23T15:48:02;10.82;;;4.00;;
62724;SDS011;49026;52.600;4.694;2022-10-23T15:50:28;10.38;;;4.20;;
62724;SDS011;49026;52.600;4.694;2022-10-23T15:52:53;7.13;;;3.35;;
62724;SDS011;49026;52.600;4.694;2022-10-23T15:55:19;11.30;;;4.40;;
62724;SDS011;49026;52.600;4.694;2022-10-23T15:57:45;9.98;;;3.97;;
62724;SDS011;49026;52.600;4.694;2022-10-23T16:00:11;11.23;;;4.82;;
62724;SDS011;49026;52.600;4.694;2022-10-23T16:02:38;12.30;;;5.00;;
62724;SDS011;49026;52.600;4.694;2022-10-23T16:05:05;7.57;;;4.22;;
62724;SDS011;49026;52.600;4.694;2022-10-23T16:07:31;9.75;;;4.13;;
62724;SDS011;49026;52.600;4.694;2022-10-23T16:09:56;12.30;;;4.18;;
62724;SDS011;49026;52.600;4.694;2022-10-23T16:12:24;13.18;;;4.20;;
62724;SDS011;49026;52.600;4.694;2022-10-23T16:14:52;8.82;;;4.05;;
62724;SDS011;49026;52.600;4.694;2022-10-23T16:17:17;8.57;;;4.03;;
62724;SDS011;49026;52.600;4.694;2022-10-23T16:19:43;14.40;;;4.45;;
62724;SDS011;49026;52.600;4.694;2022-10-23T16:22:09;10.02;;;4.30;;
62724;SDS011;49026;52.600;4.694;2022-10-23T16:24:34;8.27;;;3.85;;
62724;SDS011;49026;52.600;4.694;2022-10-23T16:26:59;10.25;;;3.83;;
62724;SDS011;49026;52.600;4.694;2022-10-23T16:29:25;10.57;;;4.47;;
62724;SDS011;49026;52.600;4.694;2022-10-23T16:31:52;12.68;;;4.03;;
62724;SDS011;49026;52.600;4.694;2022-10-23T16:34:17;9.55;;;4.10;;
62724;SDS011;49026;52.600;4.694;2022-10-23T16:36:43;7.82;;;4.05;;
62724;SDS011;49026;52.600;4.694;2022-10-23T16:39:12;9.10;;;3.58;;
62724;SDS011;49026;52.600;4.694;2022-10-23T16:41:39;9.57;;;4.05;;
62724;SDS011;49026;52.600;4.694;2022-10-23T16:44:04;7.38;;;3.35;;
62724;SDS011;49026;52.600;4.694;2022-10-23T16:46:32;9.35;;;3.28;;
62724;SDS011;49026;52.600;4.694;2022-10-23T16:48:59;8.65;;;3.78;;
62724;SDS011;49026;52.600;4.694;2022-10-23T16:51:28;8.25;;;3.78;;
62724;SDS011;49026;52.600;4.694;2022-10-23T16:53:55;9.50;;;3.78;;
62724;SDS011;49026;52.600;4.694;2022-10-23T16:56:22;5.57;;;3.50;;
62724;SDS011;49026;52.600;4.694;2022-10-23T16:58:49;7.47;;;3.38;;
62724;SDS011;49026;52.600;4.694;2022-10-23T17:01:19;8.63;;;3.90;;